sensor_id;sensor_type;location;lat;lon;timestamp;P1;durP1;ratioP1;P2;durP2;ratioP2
10031;SDS011;5056;44.272;19.892;2022-09-12T00:01:11;3.58;;;3.35;;
10031;SDS011;5056;44.272;19.892;2022-09-12T00:03:39;4.10;;;3.70;;
10031;SDS011;5056;44.272;19.892;2022-09-12T00:06:09;3.85;;;3.55;;
10031;SDS011;5056;44.272;19.892;2022-09-12T00:08:38;3.22;;;3.03;;
10031;SDS011;5056;44.272;19.892;2022-09-12T00:11:08;4.03;;;3.72;;
10031;SDS011;5056;44.272;19.892;2022-09-12T00:13:38;3.72;;;3.45;;
10031;SDS011;5056;44.272;19.892;2022-09-12T00:16:06;4.00;;;3.80;;
10031;SDS011;5056;44.272;19.892;2022-09-12T00:18:39;4.22;;;3.83;;
10031;SDS011;5056;44.272;19.892;2022-09-12T00:21:08;4.40;;;3.72;;
10031;SDS011;5056;44.272;19.892;2022-09-12T00:23:35;5.13;;;3.80;;
10031;SDS011;5056;44.272;19.892;2022-09-12T00:26:09;3.80;;;3.50;;
10031;SDS011;5056;44.272;19.892;2022-09-12T00:28:36;4.35;;;4.05;;
10031;SDS011;5056;44.272;19.892;2022-09-12T00:31:09;3.90;;;3.60;;
10031;SDS011;5056;44.272;19.892;2022-09-12T00:33:38;3.38;;;3.17;;
10031;SDS011;5056;44.272;19.892;2022-09-12T00:36:07;5.70;;;3.40;;
10031;SDS011;5056;44.272;19.892;2022-09-12T00:38:43;4.55;;;4.15;;
10031;SDS011;5056;44.272;19.892;2022-09-12T00:41:12;4.20;;;3.80;;
10031;SDS011;5056;44.272;19.892;2022-09-12T00:43:42;4.03;;;3.72;;
10031;SDS011;5056;44.272;19.892;2022-09-12T00:46:14;5.32;;;4.47;;
10031;SDS011;5056;44.272;19.892;2022-09-12T00:48:51;4.90;;;3.95;;
10031;SDS011;5056;44.272;19.892;2022-09-12T00:51:22;3.78;;;3.53;;
10031;SDS011;5056;44.272;19.892;2022-09-12T00:53:49;6.75;;;4.40;;
10031;SDS011;5056;44.272;19.892;2022-09-12T00:56:21;5.20;;;4.28;;
10031;SDS011;5056;44.272;19.892;2022-09-12T00:58:51;4.32;;;4.00;;
10031;SDS011;5056;44.272;19.892;2022-09-12T01:01:28;4.07;;;3.78;;
10031;SDS011;5056;44.272;19.892;2022-09-12T01:03:56;4.35;;;3.95;;
10031;SDS011;5056;44.272;19.892;2022-09-12T01:06:26;4.55;;;4.25;;
10031;SDS011;5056;44.272;19.892;2022-09-12T01:09:00;5.20;;;4.68;;
10031;SDS011;5056;44.272;19.892;2022-09-12T01:11:30;5.38;;;4.70;;
10031;SDS011;5056;44.272;19.892;2022-09-12T01:13:59;5.50;;;4.90;;
10031;SDS011;5056;44.272;19.892;2022-09-12T01:16:40;5.30;;;4.80;;
10031;SDS011;5056;44.272;19.892;2022-09-12T01:19:11;5.15;;;4.72;;
10031;SDS011;5056;44.272;19.892;2022-09-12T01:21:55;5.65;;;5.07;;
10031;SDS011;5056;44.272;19.892;2022-09-12T01:24:41;5.07;;;4.60;;
10031;SDS011;5056;44.272;19.892;2022-09-12T01:30:45;5.38;;;4.97;;
10031;SDS011;5056;44.272;19.892;2022-09-12T01:36:26;5.22;;;4.72;;
10031;SDS011;5056;44.272;19.892;2022-09-12T01:38:59;5.82;;;5.28;;
10031;SDS011;5056;44.272;19.892;2022-09-12T01:41:31;5.28;;;4.88;;
10031;SDS011;5056;44.272;19.892;2022-09-12T01:44:10;5.72;;;5.22;;
10031;SDS011;5056;44.272;19.892;2022-09-12T01:46:42;5.50;;;5.00;;
10031;SDS011;5056;44.272;19.892;2022-09-12T01:49:20;5.93;;;5.35;;
10031;SDS011;5056;44.272;19.892;2022-09-12T01:51:54;6.35;;;5.53;;
10031;SDS011;5056;44.272;19.892;2022-09-12T01:54:24;6.32;;;5.20;;
10031;SDS011;5056;44.272;19.892;2022-09-12T01:57:00;5.63;;;5.10;;
10031;SDS011;5056;44.272;19.892;2022-09-12T01:59:32;5.20;;;4.80;;
10031;SDS011;5056;44.272;19.892;2022-09-12T02:02:02;4.82;;;4.38;;
10031;SDS011;5056;44.272;19.892;2022-09-12T02:04:34;5.97;;;4.28;;
10031;SDS011;5056;44.272;19.892;2022-09-12T02:07:05;4.18;;;3.88;;
10031;SDS011;5056;44.272;19.892;2022-09-12T02:09:37;4.03;;;3.58;;
10031;SDS011;5056;44.272;19.892;2022-09-12T02:12:09;3.63;;;3.10;;
10031;SDS011;5056;44.272;19.892;2022-09-12T02:14:39;3.17;;;2.88;;
10031;SDS011;5056;44.272;19.892;2022-09-12T02:17:12;3.83;;;2.90;;
10031;SDS011;5056;44.272;19.892;2022-09-12T02:19:40;2.10;;;1.92;;
10031;SDS011;5056;44.272;19.892;2022-09-12T02:22:10;1.70;;;1.60;;
10031;SDS011;5056;44.272;19.892;2022-09-12T02:24:43;1.77;;;1.67;;
10031;SDS011;5056;44.272;19.892;2022-09-12T02:27:13;1.65;;;1.55;;
10031;SDS011;5056;44.272;19.892;2022-09-12T02:29:40;2.05;;;1.55;;
10031;SDS011;5056;44.272;19.892;2022-09-12T02:32:11;1.63;;;1.30;;
10031;SDS011;5056;44.272;19.892;2022-09-12T02:34:44;1.40;;;1.30;;
10031;SDS011;5056;44.272;19.892;2022-09-12T02:37:17;1.85;;;1.42;;
10031;SDS011;5056;44.272;19.892;2022-09-12T02:39:51;1.27;;;1.17;;
10031;SDS011;5056;44.272;19.892;2022-09-12T02:42:20;1.50;;;1.40;;
10031;SDS011;5056;44.272;19.892;2022-09-12T02:44:47;1.50;;;1.40;;
10031;SDS011;5056;44.272;19.892;2022-09-12T02:50:13;1.60;;;1.50;;
10031;SDS011;5056;44.272;19.892;2022-09-12T02:52:40;1.20;;;1.10;;
10031;SDS011;5056;44.272;19.892;2022-09-12T02:58:27;2.47;;;1.55;;
10031;SDS011;5056;44.272;19.892;2022-09-12T03:01:02;1.20;;;1.20;;
10031;SDS011;5056;44.272;19.892;2022-09-12T03:06:34;1.60;;;1.50;;
10031;SDS011;5056;44.272;19.892;2022-09-12T03:09:12;1.40;;;1.30;;
10031;SDS011;5056;44.272;19.892;2022-09-12T03:14:48;1.48;;;1.38;;
10031;SDS011;5056;44.272;19.892;2022-09-12T03:17:31;2.00;;;1.90;;
10031;SDS011;5056;44.272;19.892;2022-09-12T03:20:10;1.50;;;1.40;;
10031;SDS011;5056;44.272;19.892;2022-09-12T03:22:45;1.77;;;1.67;;
10031;SDS011;5056;44.272;19.892;2022-09-12T03:25:19;2.35;;;2.17;;
10031;SDS011;5056;44.272;19.892;2022-09-12T03:27:51;1.80;;;1.70;;
10031;SDS011;5056;44.272;19.892;2022-09-12T03:30:24;1.77;;;1.67;;
10031;SDS011;5056;44.272;19.892;2022-09-12T03:35:48;1.90;;;1.80;;
10031;SDS011;5056;44.272;19.892;2022-09-12T03:38:21;2.70;;;2.45;;
10031;SDS011;5056;44.272;19.892;2022-09-12T03:40:49;3.03;;;2.10;;
10031;SDS011;5056;44.272;19.892;2022-09-12T03:43:17;3.08;;;2.10;;
10031;SDS011;5056;44.272;19.892;2022-09-12T03:45:44;2.10;;;2.00;;
10031;SDS011;5056;44.272;19.892;2022-09-12T03:48:11;2.35;;;2.15;;
10031;SDS011;5056;44.272;19.892;2022-09-12T03:50:38;2.65;;;2.45;;
10031;SDS011;5056;44.272;19.892;2022-09-12T03:53:11;2.20;;;2.10;;
10031;SDS011;5056;44.272;19.892;2022-09-12T03:55:38;4.47;;;2.28;;
10031;SDS011;5056;44.272;19.892;2022-09-12T03:58:08;2.22;;;2.08;;
10031;SDS011;5056;44.272;19.892;2022-09-12T04:00:34;5.35;;;2.33;;
10031;SDS011;5056;44.272;19.892;2022-09-12T04:03:03;2.72;;;2.20;;
10031;SDS011;5056;44.272;19.892;2022-09-12T04:05:29;2.78;;;2.58;;
10031;SDS011;5056;44.272;19.892;2022-09-12T04:07:56;2.80;;;2.60;;
10031;SDS011;5056;44.272;19.892;2022-09-12T04:10:27;4.57;;;2.38;;
10031;SDS011;5056;44.272;19.892;2022-09-12T04:16:16;3.88;;;2.78;;
10031;SDS011;5056;44.272;19.892;2022-09-12T04:18:50;5.22;;;3.08;;
10031;SDS011;5056;44.272;19.892;2022-09-12T04:21:17;4.68;;;2.75;;
10031;SDS011;5056;44.272;19.892;2022-09-12T04:23:47;2.60;;;2.40;;
10031;SDS011;5056;44.272;19.892;2022-09-12T04:26:18;3.03;;;2.70;;
10031;SDS011;5056;44.272;19.892;2022-09-12T04:28:45;2.80;;;2.60;;
10031;SDS011;5056;44.272;19.892;2022-09-12T04:31:19;3.17;;;2.30;;
10031;SDS011;5056;44.272;19.892;2022-09-12T04:33:52;4.95;;;3.47;;
10031;SDS011;5056;44.272;19.892;2022-09-12T04:36:20;2.92;;;2.80;;
10031;SDS011;5056;44.272;19.892;2022-09-12T04:38:51;3.42;;;3.13;;
10031;SDS011;5056;44.272;19.892;2022-09-12T04:41:21;4.28;;;3.13;;
10031;SDS011;5056;44.272;19.892;2022-09-12T04:43:51;5.65;;;4.40;;
10031;SDS011;5056;44.272;19.892;2022-09-12T04:46:19;5.20;;;4.18;;
10031;SDS011;5056;44.272;19.892;2022-09-12T04:48:52;5.68;;;5.00;;
10031;SDS011;5056;44.272;19.892;2022-09-12T04:51:23;4.53;;;4.05;;
10031;SDS011;5056;44.272;19.892;2022-09-12T04:53:53;4.55;;;4.05;;
10031;SDS011;5056;44.272;19.892;2022-09-12T04:56:23;7.70;;;3.95;;
10031;SDS011;5056;44.272;19.892;2022-09-12T04:58:50;5.63;;;3.47;;
10031;SDS011;5056;44.272;19.892;2022-09-12T05:01:18;4.22;;;3.30;;
10031;SDS011;5056;44.272;19.892;2022-09-12T05:03:47;3.97;;;3.67;;
10031;SDS011;5056;44.272;19.892;2022-09-12T05:06:17;3.75;;;3.53;;
10031;SDS011;5056;44.272;19.892;2022-09-12T05:08:51;4.60;;;3.75;;
10031;SDS011;5056;44.272;19.892;2022-09-12T05:11:19;4.45;;;3.88;;
10031;SDS011;5056;44.272;19.892;2022-09-12T05:13:48;4.20;;;3.78;;
10031;SDS011;5056;44.272;19.892;2022-09-12T05:16:21;6.45;;;4.60;;
10031;SDS011;5056;44.272;19.892;2022-09-12T05:18:49;5.85;;;4.20;;
10031;SDS011;5056;44.272;19.892;2022-09-12T05:21:17;4.88;;;4.47;;
10031;SDS011;5056;44.272;19.892;2022-09-12T05:23:53;7.38;;;4.93;;
10031;SDS011;5056;44.272;19.892;2022-09-12T05:26:22;4.75;;;4.20;;
10031;SDS011;5056;44.272;19.892;2022-09-12T05:28:50;4.05;;;3.67;;
10031;SDS011;5056;44.272;19.892;2022-09-12T05:31:21;6.15;;;3.80;;
10031;SDS011;5056;44.272;19.892;2022-09-12T05:33:49;4.35;;;3.25;;
10031;SDS011;5056;44.272;19.892;2022-09-12T05:36:19;4.15;;;3.20;;
10031;SDS011;5056;44.272;19.892;2022-09-12T05:38:57;3.47;;;3.10;;
10031;SDS011;5056;44.272;19.892;2022-09-12T05:41:27;4.70;;;3.33;;
10031;SDS011;5056;44.272;19.892;2022-09-12T05:43:55;3.33;;;3.13;;
10031;SDS011;5056;44.272;19.892;2022-09-12T05:46:27;5.53;;;3.08;;
10031;SDS011;5056;44.272;19.892;2022-09-12T05:48:55;3.65;;;3.35;;
10031;SDS011;5056;44.272;19.892;2022-09-12T05:51:26;3.92;;;2.90;;
10031;SDS011;5056;44.272;19.892;2022-09-12T05:54:00;3.55;;;3.28;;
10031;SDS011;5056;44.272;19.892;2022-09-12T05:56:30;3.30;;;3.10;;
10031;SDS011;5056;44.272;19.892;2022-09-12T05:58:59;3.42;;;3.13;;
10031;SDS011;5056;44.272;19.892;2022-09-12T06:01:27;3.85;;;3.47;;
10031;SDS011;5056;44.272;19.892;2022-09-12T06:04:02;3.20;;;3.00;;
10031;SDS011;5056;44.272;19.892;2022-09-12T06:06:34;3.30;;;3.10;;
10031;SDS011;5056;44.272;19.892;2022-09-12T06:09:03;3.30;;;3.08;;
10031;SDS011;5056;44.272;19.892;2022-09-12T06:11:36;3.58;;;3.28;;
10031;SDS011;5056;44.272;19.892;2022-09-12T06:14:05;3.42;;;3.13;;
10031;SDS011;5056;44.272;19.892;2022-09-12T06:16:34;2.70;;;2.50;;
10031;SDS011;5056;44.272;19.892;2022-09-12T06:19:06;3.75;;;2.90;;
10031;SDS011;5056;44.272;19.892;2022-09-12T06:21:35;3.80;;;3.45;;
10031;SDS011;5056;44.272;19.892;2022-09-12T06:24:04;3.15;;;2.92;;
10031;SDS011;5056;44.272;19.892;2022-09-12T06:26:37;5.72;;;3.33;;
10031;SDS011;5056;44.272;19.892;2022-09-12T06:29:04;4.20;;;2.90;;
10031;SDS011;5056;44.272;19.892;2022-09-12T06:31:33;3.47;;;3.17;;
10031;SDS011;5056;44.272;19.892;2022-09-12T06:34:03;3.58;;;3.28;;
10031;SDS011;5056;44.272;19.892;2022-09-12T06:36:40;5.88;;;3.60;;
10031;SDS011;5056;44.272;19.892;2022-09-12T06:39:09;3.65;;;3.33;;
10031;SDS011;5056;44.272;19.892;2022-09-12T06:41:54;3.35;;;3.05;;
10031;SDS011;5056;44.272;19.892;2022-09-12T06:44:22;5.40;;;3.40;;
10031;SDS011;5056;44.272;19.892;2022-09-12T06:47:04;4.05;;;3.58;;
10031;SDS011;5056;44.272;19.892;2022-09-12T06:49:37;4.35;;;3.75;;
10031;SDS011;5056;44.272;19.892;2022-09-12T06:52:05;3.20;;;2.90;;
10031;SDS011;5056;44.272;19.892;2022-09-12T06:54:33;3.92;;;3.20;;
10031;SDS011;5056;44.272;19.892;2022-09-12T06:57:04;4.30;;;3.90;;
10031;SDS011;5056;44.272;19.892;2022-09-12T06:59:36;7.03;;;3.95;;
10031;SDS011;5056;44.272;19.892;2022-09-12T07:02:04;4.10;;;3.80;;
10031;SDS011;5056;44.272;19.892;2022-09-12T07:04:31;4.32;;;3.78;;
10031;SDS011;5056;44.272;19.892;2022-09-12T07:07:04;3.90;;;3.60;;
10031;SDS011;5056;44.272;19.892;2022-09-12T07:09:34;4.25;;;3.83;;
10031;SDS011;5056;44.272;19.892;2022-09-12T07:12:05;5.65;;;4.22;;
10031;SDS011;5056;44.272;19.892;2022-09-12T07:14:33;3.92;;;3.55;;
10031;SDS011;5056;44.272;19.892;2022-09-12T07:17:00;5.07;;;3.40;;
10031;SDS011;5056;44.272;19.892;2022-09-12T07:19:45;3.92;;;3.53;;
10031;SDS011;5056;44.272;19.892;2022-09-12T07:22:14;5.85;;;3.83;;
10031;SDS011;5056;44.272;19.892;2022-09-12T07:24:49;5.85;;;3.70;;
10031;SDS011;5056;44.272;19.892;2022-09-12T07:27:20;3.60;;;3.30;;
10031;SDS011;5056;44.272;19.892;2022-09-12T07:29:47;8.85;;;3.88;;
10031;SDS011;5056;44.272;19.892;2022-09-12T07:35:37;3.50;;;3.20;;
10031;SDS011;5056;44.272;19.892;2022-09-12T07:38:10;3.50;;;3.20;;
10031;SDS011;5056;44.272;19.892;2022-09-12T07:40:38;4.30;;;3.42;;
10031;SDS011;5056;44.272;19.892;2022-09-12T07:43:08;3.65;;;3.25;;
10031;SDS011;5056;44.272;19.892;2022-09-12T07:45:35;3.70;;;3.40;;
10031;SDS011;5056;44.272;19.892;2022-09-12T07:48:06;3.13;;;2.85;;
10031;SDS011;5056;44.272;19.892;2022-09-12T07:50:34;3.30;;;3.10;;
10031;SDS011;5056;44.272;19.892;2022-09-12T07:53:03;4.57;;;3.47;;
10031;SDS011;5056;44.272;19.892;2022-09-12T07:55:30;2.80;;;2.60;;
10031;SDS011;5056;44.272;19.892;2022-09-12T07:57:57;4.30;;;2.95;;
10031;SDS011;5056;44.272;19.892;2022-09-12T08:00:33;4.13;;;2.90;;
10031;SDS011;5056;44.272;19.892;2022-09-12T08:03:01;3.10;;;2.90;;
10031;SDS011;5056;44.272;19.892;2022-09-12T08:05:31;3.70;;;3.13;;
10031;SDS011;5056;44.272;19.892;2022-09-12T08:07:59;4.13;;;3.10;;
10031;SDS011;5056;44.272;19.892;2022-09-12T08:10:26;3.05;;;2.90;;
10031;SDS011;5056;44.272;19.892;2022-09-12T08:12:57;5.05;;;2.80;;
10031;SDS011;5056;44.272;19.892;2022-09-12T08:15:25;3.08;;;2.80;;
10031;SDS011;5056;44.272;19.892;2022-09-12T08:17:52;2.90;;;2.80;;
10031;SDS011;5056;44.272;19.892;2022-09-12T08:20:19;6.10;;;3.60;;
10031;SDS011;5056;44.272;19.892;2022-09-12T08:22:47;2.85;;;2.75;;
10031;SDS011;5056;44.272;19.892;2022-09-12T08:25:14;3.50;;;3.20;;
10031;SDS011;5056;44.272;19.892;2022-09-12T08:27:45;4.45;;;3.28;;
10031;SDS011;5056;44.272;19.892;2022-09-12T08:30:13;3.90;;;3.20;;
10031;SDS011;5056;44.272;19.892;2022-09-12T08:32:42;3.15;;;2.95;;
10031;SDS011;5056;44.272;19.892;2022-09-12T08:35:09;3.65;;;3.30;;
10031;SDS011;5056;44.272;19.892;2022-09-12T08:37:36;3.55;;;2.97;;
10031;SDS011;5056;44.272;19.892;2022-09-12T08:40:05;3.20;;;3.00;;
10031;SDS011;5056;44.272;19.892;2022-09-12T08:42:37;3.17;;;2.97;;
10031;SDS011;5056;44.272;19.892;2022-09-12T08:45:14;3.38;;;3.08;;
10031;SDS011;5056;44.272;19.892;2022-09-12T08:47:46;3.03;;;2.83;;
10031;SDS011;5056;44.272;19.892;2022-09-12T08:50:15;3.15;;;2.67;;
10031;SDS011;5056;44.272;19.892;2022-09-12T08:52:49;2.92;;;2.72;;
10031;SDS011;5056;44.272;19.892;2022-09-12T08:55:27;3.33;;;3.13;;
10031;SDS011;5056;44.272;19.892;2022-09-12T08:57:56;3.00;;;2.80;;
10031;SDS011;5056;44.272;19.892;2022-09-12T09:00:25;3.33;;;3.13;;
10031;SDS011;5056;44.272;19.892;2022-09-12T09:05:53;3.03;;;2.83;;
10031;SDS011;5056;44.272;19.892;2022-09-12T09:08:44;3.40;;;3.03;;
10031;SDS011;5056;44.272;19.892;2022-09-12T09:14:09;3.00;;;2.80;;
10031;SDS011;5056;44.272;19.892;2022-09-12T09:17:03;2.97;;;2.78;;
10031;SDS011;5056;44.272;19.892;2022-09-12T09:19:39;3.20;;;3.00;;
10031;SDS011;5056;44.272;19.892;2022-09-12T09:22:09;2.85;;;2.67;;
10031;SDS011;5056;44.272;19.892;2022-09-12T09:24:40;2.78;;;2.65;;
10031;SDS011;5056;44.272;19.892;2022-09-12T09:27:11;2.75;;;2.55;;
10031;SDS011;5056;44.272;19.892;2022-09-12T09:29:40;3.67;;;2.63;;
10031;SDS011;5056;44.272;19.892;2022-09-12T09:32:11;3.22;;;2.80;;
10031;SDS011;5056;44.272;19.892;2022-09-12T09:34:44;2.80;;;2.70;;
10031;SDS011;5056;44.272;19.892;2022-09-12T09:37:13;2.95;;;2.85;;
10031;SDS011;5056;44.272;19.892;2022-09-12T09:39:47;3.05;;;2.85;;
10031;SDS011;5056;44.272;19.892;2022-09-12T09:42:24;3.25;;;2.78;;
10031;SDS011;5056;44.272;19.892;2022-09-12T09:44:56;2.95;;;2.75;;
10031;SDS011;5056;44.272;19.892;2022-09-12T09:47:26;3.53;;;3.22;;
10031;SDS011;5056;44.272;19.892;2022-09-12T09:49:56;3.40;;;3.10;;
10031;SDS011;5056;44.272;19.892;2022-09-12T09:52:25;3.83;;;3.47;;
10031;SDS011;5056;44.272;19.892;2022-09-12T09:55:01;2.50;;;2.40;;
10031;SDS011;5056;44.272;19.892;2022-09-12T09:57:42;3.20;;;3.00;;
10031;SDS011;5056;44.272;19.892;2022-09-12T10:03:03;2.70;;;2.50;;
10031;SDS011;5056;44.272;19.892;2022-09-12T10:05:34;2.78;;;2.58;;
10031;SDS011;5056;44.272;19.892;2022-09-12T10:08:04;3.83;;;2.97;;
10031;SDS011;5056;44.272;19.892;2022-09-12T10:10:32;3.30;;;3.00;;
10031;SDS011;5056;44.272;19.892;2022-09-12T10:13:06;3.10;;;2.80;;
10031;SDS011;5056;44.272;19.892;2022-09-12T10:15:54;3.60;;;3.35;;
10031;SDS011;5056;44.272;19.892;2022-09-12T10:18:31;3.45;;;2.95;;
10031;SDS011;5056;44.272;19.892;2022-09-12T10:21:15;3.67;;;2.70;;
10031;SDS011;5056;44.272;19.892;2022-09-12T10:23:45;3.08;;;2.85;;
10031;SDS011;5056;44.272;19.892;2022-09-12T10:26:13;2.92;;;2.72;;
10031;SDS011;5056;44.272;19.892;2022-09-12T10:28:42;2.70;;;2.50;;
10031;SDS011;5056;44.272;19.892;2022-09-12T10:31:12;2.88;;;2.67;;
10031;SDS011;5056;44.272;19.892;2022-09-12T10:33:43;3.47;;;3.05;;
10031;SDS011;5056;44.272;19.892;2022-09-12T10:36:18;2.53;;;2.42;;
10031;SDS011;5056;44.272;19.892;2022-09-12T10:38:49;2.97;;;2.60;;
10031;SDS011;5056;44.272;19.892;2022-09-12T10:41:17;3.30;;;2.90;;
10031;SDS011;5056;44.272;19.892;2022-09-12T10:43:46;2.33;;;2.22;;
10031;SDS011;5056;44.272;19.892;2022-09-12T10:46:20;3.13;;;2.50;;
10031;SDS011;5056;44.272;19.892;2022-09-12T10:48:50;2.63;;;2.50;;
10031;SDS011;5056;44.272;19.892;2022-09-12T10:51:26;3.17;;;2.97;;
10031;SDS011;5056;44.272;19.892;2022-09-12T10:53:55;4.53;;;2.95;;
10031;SDS011;5056;44.272;19.892;2022-09-12T10:56:25;3.10;;;2.90;;
10031;SDS011;5056;44.272;19.892;2022-09-12T10:59:00;2.50;;;2.40;;
10031;SDS011;5056;44.272;19.892;2022-09-12T11:01:34;2.45;;;2.30;;
10031;SDS011;5056;44.272;19.892;2022-09-12T11:07:04;2.92;;;2.80;;
10031;SDS011;5056;44.272;19.892;2022-09-12T11:09:48;3.33;;;3.03;;
10031;SDS011;5056;44.272;19.892;2022-09-12T11:15:06;3.72;;;2.60;;
10031;SDS011;5056;44.272;19.892;2022-09-12T11:17:47;3.50;;;2.85;;
10031;SDS011;5056;44.272;19.892;2022-09-12T11:20:29;2.97;;;2.78;;
10031;SDS011;5056;44.272;19.892;2022-09-12T11:25:57;2.55;;;2.35;;
10031;SDS011;5056;44.272;19.892;2022-09-12T11:28:30;2.80;;;2.70;;
10031;SDS011;5056;44.272;19.892;2022-09-12T11:31:15;2.88;;;2.67;;
10031;SDS011;5056;44.272;19.892;2022-09-12T11:33:50;1.92;;;1.85;;
10031;SDS011;5056;44.272;19.892;2022-09-12T11:39:11;2.63;;;2.42;;
10031;SDS011;5056;44.272;19.892;2022-09-12T11:41:46;2.40;;;2.30;;
10031;SDS011;5056;44.272;19.892;2022-09-12T11:44:17;2.97;;;2.53;;
10031;SDS011;5056;44.272;19.892;2022-09-12T11:46:46;2.60;;;2.42;;
10031;SDS011;5056;44.272;19.892;2022-09-12T11:49:18;2.85;;;2.50;;
10031;SDS011;5056;44.272;19.892;2022-09-12T11:51:54;2.70;;;2.50;;
10031;SDS011;5056;44.272;19.892;2022-09-12T11:54:31;3.95;;;2.47;;
10031;SDS011;5056;44.272;19.892;2022-09-12T11:57:03;3.13;;;2.70;;
10031;SDS011;5056;44.272;19.892;2022-09-12T11:59:39;2.80;;;2.60;;
10031;SDS011;5056;44.272;19.892;2022-09-12T12:02:11;4.25;;;2.60;;
10031;SDS011;5056;44.272;19.892;2022-09-12T12:04:43;3.33;;;2.72;;
10031;SDS011;5056;44.272;19.892;2022-09-12T12:07:17;3.67;;;2.65;;
10031;SDS011;5056;44.272;19.892;2022-09-12T12:09:49;2.67;;;2.47;;
10031;SDS011;5056;44.272;19.892;2022-09-12T12:12:21;2.88;;;2.60;;
10031;SDS011;5056;44.272;19.892;2022-09-12T12:14:53;4.00;;;3.15;;
10031;SDS011;5056;44.272;19.892;2022-09-12T12:17:21;2.47;;;2.38;;
10031;SDS011;5056;44.272;19.892;2022-09-12T12:19:55;2.42;;;2.22;;
10031;SDS011;5056;44.272;19.892;2022-09-12T12:22:24;2.20;;;2.10;;
10031;SDS011;5056;44.272;19.892;2022-09-12T12:27:51;5.90;;;3.20;;
10031;SDS011;5056;44.272;19.892;2022-09-12T12:36:39;4.05;;;2.40;;
10031;SDS011;5056;44.272;19.892;2022-09-12T12:39:55;2.58;;;2.42;;
10031;SDS011;5056;44.272;19.892;2022-09-12T12:45:47;2.33;;;2.22;;
10031;SDS011;5056;44.272;19.892;2022-09-12T12:48:15;4.75;;;3.00;;
10031;SDS011;5056;44.272;19.892;2022-09-12T12:50:44;4.07;;;2.78;;
10031;SDS011;5056;44.272;19.892;2022-09-12T12:53:16;3.00;;;2.80;;
10031;SDS011;5056;44.272;19.892;2022-09-12T12:55:46;2.55;;;2.45;;
10031;SDS011;5056;44.272;19.892;2022-09-12T12:58:26;2.60;;;2.45;;
10031;SDS011;5056;44.272;19.892;2022-09-12T13:01:04;2.53;;;2.42;;
10031;SDS011;5056;44.272;19.892;2022-09-12T13:03:36;2.85;;;2.65;;
10031;SDS011;5056;44.272;19.892;2022-09-12T13:06:08;2.38;;;2.28;;
10031;SDS011;5056;44.272;19.892;2022-09-12T13:08:54;3.08;;;2.53;;
10031;SDS011;5056;44.272;19.892;2022-09-12T13:11:29;2.28;;;2.17;;
10031;SDS011;5056;44.272;19.892;2022-09-12T13:13:58;2.38;;;2.20;;
10031;SDS011;5056;44.272;19.892;2022-09-12T13:16:32;2.67;;;2.47;;
10031;SDS011;5056;44.272;19.892;2022-09-12T13:19:01;2.72;;;2.38;;
10031;SDS011;5056;44.272;19.892;2022-09-12T13:21:30;2.10;;;1.98;;
10031;SDS011;5056;44.272;19.892;2022-09-12T13:23:57;2.67;;;2.58;;
10031;SDS011;5056;44.272;19.892;2022-09-12T13:26:25;2.85;;;2.65;;
10031;SDS011;5056;44.272;19.892;2022-09-12T13:29:07;2.90;;;2.70;;
10031;SDS011;5056;44.272;19.892;2022-09-12T13:31:39;2.60;;;2.42;;
10031;SDS011;5056;44.272;19.892;2022-09-12T13:34:08;2.70;;;2.50;;
10031;SDS011;5056;44.272;19.892;2022-09-12T13:36:39;2.85;;;2.75;;
10031;SDS011;5056;44.272;19.892;2022-09-12T13:39:17;2.47;;;2.35;;
10031;SDS011;5056;44.272;19.892;2022-09-12T13:41:51;2.55;;;2.35;;
10031;SDS011;5056;44.272;19.892;2022-09-12T13:44:43;2.50;;;2.30;;
10031;SDS011;5056;44.272;19.892;2022-09-12T13:47:14;3.25;;;2.50;;
10031;SDS011;5056;44.272;19.892;2022-09-12T13:49:44;2.35;;;2.17;;
10031;SDS011;5056;44.272;19.892;2022-09-12T13:52:14;2.20;;;2.00;;
10031;SDS011;5056;44.272;19.892;2022-09-12T13:54:50;2.53;;;2.42;;
10031;SDS011;5056;44.272;19.892;2022-09-12T13:57:27;2.80;;;2.60;;
10031;SDS011;5056;44.272;19.892;2022-09-12T13:59:56;3.22;;;2.67;;
10031;SDS011;5056;44.272;19.892;2022-09-12T14:02:26;3.08;;;2.80;;
10031;SDS011;5056;44.272;19.892;2022-09-12T14:04:56;3.03;;;2.83;;
10031;SDS011;5056;44.272;19.892;2022-09-12T14:10:25;3.40;;;2.80;;
10031;SDS011;5056;44.272;19.892;2022-09-12T14:12:55;2.97;;;2.53;;
10031;SDS011;5056;44.272;19.892;2022-09-12T14:15:31;2.20;;;2.10;;
10031;SDS011;5056;44.272;19.892;2022-09-12T14:18:04;3.15;;;2.85;;
10031;SDS011;5056;44.272;19.892;2022-09-12T14:20:36;2.92;;;2.72;;
10031;SDS011;5056;44.272;19.892;2022-09-12T14:23:05;2.75;;;2.55;;
10031;SDS011;5056;44.272;19.892;2022-09-12T14:25:39;3.08;;;2.80;;
10031;SDS011;5056;44.272;19.892;2022-09-12T14:28:09;3.08;;;2.70;;
10031;SDS011;5056;44.272;19.892;2022-09-12T14:30:40;2.95;;;2.75;;
10031;SDS011;5056;44.272;19.892;2022-09-12T14:33:19;2.80;;;2.60;;
10031;SDS011;5056;44.272;19.892;2022-09-12T14:35:47;3.67;;;2.83;;
10031;SDS011;5056;44.272;19.892;2022-09-12T14:38:21;3.28;;;3.05;;
10031;SDS011;5056;44.272;19.892;2022-09-12T14:40:51;3.05;;;2.90;;
10031;SDS011;5056;44.272;19.892;2022-09-12T14:43:25;3.08;;;2.88;;
10031;SDS011;5056;44.272;19.892;2022-09-12T14:45:55;2.70;;;2.60;;
10031;SDS011;5056;44.272;19.892;2022-09-12T14:48:26;2.88;;;2.78;;
10031;SDS011;5056;44.272;19.892;2022-09-12T14:50:57;2.92;;;2.72;;
10031;SDS011;5056;44.272;19.892;2022-09-12T14:53:31;4.78;;;3.20;;
10031;SDS011;5056;44.272;19.892;2022-09-12T14:56:05;2.95;;;2.75;;
10031;SDS011;5056;44.272;19.892;2022-09-12T14:58:34;2.92;;;2.72;;
10031;SDS011;5056;44.272;19.892;2022-09-12T15:01:02;3.03;;;2.83;;
10031;SDS011;5056;44.272;19.892;2022-09-12T15:03:53;2.83;;;2.63;;
10031;SDS011;5056;44.272;19.892;2022-09-12T15:06:22;2.55;;;2.45;;
10031;SDS011;5056;44.272;19.892;2022-09-12T15:08:52;3.00;;;2.80;;
10031;SDS011;5056;44.272;19.892;2022-09-12T15:11:20;2.85;;;2.65;;
10031;SDS011;5056;44.272;19.892;2022-09-12T15:13:47;3.88;;;2.92;;
10031;SDS011;5056;44.272;19.892;2022-09-12T15:16:14;2.80;;;2.60;;
10031;SDS011;5056;44.272;19.892;2022-09-12T15:18:41;2.97;;;2.78;;
10031;SDS011;5056;44.272;19.892;2022-09-12T15:21:12;2.55;;;2.35;;
10031;SDS011;5056;44.272;19.892;2022-09-12T15:23:43;2.92;;;2.83;;
10031;SDS011;5056;44.272;19.892;2022-09-12T15:26:12;3.10;;;2.90;;
10031;SDS011;5056;44.272;19.892;2022-09-12T15:28:40;3.15;;;2.95;;
10031;SDS011;5056;44.272;19.892;2022-09-12T15:31:11;3.47;;;3.08;;
10031;SDS011;5056;44.272;19.892;2022-09-12T15:33:46;3.25;;;2.90;;
10031;SDS011;5056;44.272;19.892;2022-09-12T15:36:16;3.10;;;2.80;;
10031;SDS011;5056;44.272;19.892;2022-09-12T15:38:46;3.22;;;3.03;;
10031;SDS011;5056;44.272;19.892;2022-09-12T15:41:14;3.45;;;2.85;;
10031;SDS011;5056;44.272;19.892;2022-09-12T15:43:42;4.03;;;2.80;;
10031;SDS011;5056;44.272;19.892;2022-09-12T15:46:09;3.10;;;2.90;;
10031;SDS011;5056;44.272;19.892;2022-09-12T15:48:37;3.00;;;2.80;;
10031;SDS011;5056;44.272;19.892;2022-09-12T15:51:07;2.95;;;2.75;;
10031;SDS011;5056;44.272;19.892;2022-09-12T15:53:38;2.85;;;2.72;;
10031;SDS011;5056;44.272;19.892;2022-09-12T15:56:05;3.40;;;3.10;;
10031;SDS011;5056;44.272;19.892;2022-09-12T15:58:35;3.20;;;2.92;;
10031;SDS011;5056;44.272;19.892;2022-09-12T16:01:03;3.83;;;2.55;;
10031;SDS011;5056;44.272;19.892;2022-09-12T16:03:30;2.95;;;2.80;;
10031;SDS011;5056;44.272;19.892;2022-09-12T16:06:01;3.10;;;2.90;;
10031;SDS011;5056;44.272;19.892;2022-09-12T16:08:30;3.10;;;2.90;;
10031;SDS011;5056;44.272;19.892;2022-09-12T16:11:01;3.25;;;3.05;;
10031;SDS011;5056;44.272;19.892;2022-09-12T16:13:29;3.47;;;3.28;;
10031;SDS011;5056;44.272;19.892;2022-09-12T16:15:56;4.18;;;3.88;;
10031;SDS011;5056;44.272;19.892;2022-09-12T16:18:33;5.78;;;5.25;;